sensor_id;sensor_type;location;lat;lon;timestamp;pressure;altitude;pressure_sealevel;temperature;humidity
38780;BME280;29273;49.962;9.768;2023-02-19T00:02:21;100098.50;;;13.25;54.05
38780;BME280;29273;49.962;9.768;2023-02-19T00:04:47;100102.19;;;13.24;54.12
38780;BME280;29273;49.962;9.768;2023-02-19T00:07:12;100091.56;;;13.24;54.24
38780;BME280;29273;49.962;9.768;2023-02-19T00:09:38;100097.50;;;13.26;54.08
38780;BME280;29273;49.962;9.768;2023-02-19T00:12:04;100098.31;;;13.26;53.98
38780;BME280;29273;49.962;9.768;2023-02-19T00:14:29;100100.16;;;13.26;54.16
38780;BME280;29273;49.962;9.768;2023-02-19T00:16:54;100091.13;;;13.27;53.96
38780;BME280;29273;49.962;9.768;2023-02-19T00:19:20;100092.19;;;13.26;54.59
38780;BME280;29273;49.962;9.768;2023-02-19T00:21:46;100093.00;;;13.26;54.56
38780;BME280;29273;49.962;9.768;2023-02-19T00:24:13;100076.81;;;13.28;53.95
38780;BME280;29273;49.962;9.768;2023-02-19T00:26:40;100082.13;;;13.28;54.38
38780;BME280;29273;49.962;9.768;2023-02-19T00:29:05;100067.41;;;13.25;54.05
38780;BME280;29273;49.962;9.768;2023-02-19T00:31:33;100074.38;;;13.26;53.97
38780;BME280;29273;49.962;9.768;2023-02-19T00:34:04;100080.88;;;13.30;54.19
38780;BME280;29273;49.962;9.768;2023-02-19T00:36:31;100084.19;;;13.26;54.15
38780;BME280;29273;49.962;9.768;2023-02-19T00:38:57;100090.53;;;13.25;54.34
38780;BME280;29273;49.962;9.768;2023-02-19T00:41:23;100082.56;;;13.25;54.44
38780;BME280;29273;49.962;9.768;2023-02-19T00:43:56;100075.38;;;13.25;54.55
38780;BME280;29273;49.962;9.768;2023-02-19T00:46:28;100067.00;;;13.28;54.54
38780;BME280;29273;49.962;9.768;2023-02-19T00:48:55;100065.63;;;13.19;54.38
38780;BME280;29273;49.962;9.768;2023-02-19T00:51:23;100051.91;;;13.22;54.64
38780;BME280;29273;49.962;9.768;2023-02-19T00:53:50;100037.59;;;13.17;54.72
38780;BME280;29273;49.962;9.768;2023-02-19T00:56:15;100047.22;;;13.18;55.10
38780;BME280;29273;49.962;9.768;2023-02-19T00:58:41;100042.31;;;13.14;55.07
38780;BME280;29273;49.962;9.768;2023-02-19T01:01:07;100040.66;;;13.13;55.10
38780;BME280;29273;49.962;9.768;2023-02-19T01:03:34;100034.34;;;13.14;55.08
38780;BME280;29273;49.962;9.768;2023-02-19T01:06:00;100022.06;;;13.13;55.28
38780;BME280;29273;49.962;9.768;2023-02-19T01:08:27;100044.59;;;13.11;55.33
38780;BME280;29273;49.962;9.768;2023-02-19T01:10:53;100044.38;;;13.12;55.07
38780;BME280;29273;49.962;9.768;2023-02-19T01:13:19;100046.41;;;13.10;55.02
38780;BME280;29273;49.962;9.768;2023-02-19T01:15:44;100048.06;;;13.11;55.04
38780;BME280;29273;49.962;9.768;2023-02-19T01:18:10;100046.41;;;13.10;54.73
38780;BME280;29273;49.962;9.768;2023-02-19T01:20:40;100047.44;;;13.16;54.58
38780;BME280;29273;49.962;9.768;2023-02-19T01:23:07;100049.28;;;13.09;54.82
38780;BME280;29273;49.962;9.768;2023-02-19T01:25:33;100026.81;;;13.05;54.75
38780;BME280;29273;49.962;9.768;2023-02-19T01:27:58;100032.72;;;13.07;55.10
38780;BME280;29273;49.962;9.768;2023-02-19T01:30:24;100032.94;;;13.05;54.92
38780;BME280;29273;49.962;9.768;2023-02-19T01:32:49;100029.25;;;13.06;55.05
38780;BME280;29273;49.962;9.768;2023-02-19T01:35:17;100029.25;;;13.06;54.93
38780;BME280;29273;49.962;9.768;2023-02-19T01:37:42;100030.50;;;13.04;54.49
38780;BME280;29273;49.962;9.768;2023-02-19T01:40:08;100011.66;;;13.05;54.96
38780;BME280;29273;49.962;9.768;2023-02-19T01:42:33;100005.34;;;13.06;55.14
38780;BME280;29273;49.962;9.768;2023-02-19T01:45:32;100024.75;;;13.07;54.96
38780;BME280;29273;49.962;9.768;2023-02-19T01:48:10;100003.28;;;13.08;54.83
38780;BME280;29273;49.962;9.768;2023-02-19T01:50:48;100000.63;;;13.08;54.81
38780;BME280;29273;49.962;9.768;2023-02-19T01:53:19;99999.84;;;13.01;55.23
38780;BME280;29273;49.962;9.768;2023-02-19T01:55:48;99998.59;;;13.04;55.07
38780;BME280;29273;49.962;9.768;2023-02-19T01:58:16;99993.94;;;12.99;55.07
38780;BME280;29273;49.962;9.768;2023-02-19T02:00:42;99996.19;;;12.95;55.52
38780;BME280;29273;49.962;9.768;2023-02-19T02:03:07;99986.81;;;12.93;55.34
38780;BME280;29273;49.962;9.768;2023-02-19T02:08:21;99986.00;;;12.92;55.41
38780;BME280;29273;49.962;9.768;2023-02-19T02:11:06;99981.47;;;12.93;55.46
38780;BME280;29273;49.962;9.768;2023-02-19T02:13:33;99994.16;;;12.98;55.40
38780;BME280;29273;49.962;9.768;2023-02-19T02:16:10;99982.25;;;13.00;55.12
38780;BME280;29273;49.962;9.768;2023-02-19T02:18:57;99979.38;;;13.02;54.95
38780;BME280;29273;49.962;9.768;2023-02-19T02:24:36;99971.22;;;12.96;55.42
38780;BME280;29273;49.962;9.768;2023-02-19T02:30:09;99970.44;;;12.96;55.57
38780;BME280;29273;49.962;9.768;2023-02-19T02:32:45;99985.97;;;12.99;55.45
38780;BME280;29273;49.962;9.768;2023-02-19T02:35:22;99977.97;;;12.99;55.42
38780;BME280;29273;49.962;9.768;2023-02-19T02:37:49;99977.56;;;12.95;55.63
38780;BME280;29273;49.962;9.768;2023-02-19T02:40:16;99973.88;;;12.96;55.31
38780;BME280;29273;49.962;9.768;2023-02-19T02:42:42;99971.22;;;12.96;55.65
38780;BME280;29273;49.962;9.768;2023-02-19T02:51:05;99969.56;;;13.02;55.23
38780;BME280;29273;49.962;9.768;2023-02-19T02:53:51;99960.56;;;13.03;55.21
38780;BME280;29273;49.962;9.768;2023-02-19T02:56:38;99962.25;;;12.98;55.75
38780;BME280;29273;49.962;9.768;2023-02-19T02:59:08;99956.50;;;13.01;55.94
38780;BME280;29273;49.962;9.768;2023-02-19T03:01:44;99948.53;;;13.01;55.55
38780;BME280;29273;49.962;9.768;2023-02-19T03:04:39;99955.66;;;13.00;55.42
38780;BME280;29273;49.962;9.768;2023-02-19T03:07:39;99956.94;;;12.98;55.93
38780;BME280;29273;49.962;9.768;2023-02-19T03:10:10;99954.28;;;12.98;55.98
38780;BME280;29273;49.962;9.768;2023-02-19T03:12:39;99951.81;;;12.96;56.05
38780;BME280;29273;49.962;9.768;2023-02-19T03:15:28;99961.41;;;12.97;55.97
38780;BME280;29273;49.962;9.768;2023-02-19T03:18:18;99956.31;;;12.95;56.10
38780;BME280;29273;49.962;9.768;2023-02-19T03:21:03;99953.88;;;12.94;56.02
38780;BME280;29273;49.962;9.768;2023-02-19T03:23:32;99954.28;;;12.98;55.94
38780;BME280;29273;49.962;9.768;2023-02-19T03:26:18;99956.31;;;12.95;55.95
38780;BME280;29273;49.962;9.768;2023-02-19T03:28:50;99940.59;;;12.94;55.98
38780;BME280;29273;49.962;9.768;2023-02-19T03:31:39;99944.66;;;12.96;56.12
38780;BME280;29273;49.962;9.768;2023-02-19T03:34:10;99947.91;;;12.99;55.90
38780;BME280;29273;49.962;9.768;2023-02-19T03:36:43;99951.59;;;12.98;55.58
38780;BME280;29273;49.962;9.768;2023-02-19T03:39:12;99950.78;;;12.97;56.01
38780;BME280;29273;49.962;9.768;2023-02-19T03:41:51;99942.38;;;13.00;55.59
38780;BME280;29273;49.962;9.768;2023-02-19T03:44:42;99927.91;;;12.96;55.62
38780;BME280;29273;49.962;9.768;2023-02-19T03:47:28;99941.59;;;12.93;55.47
38780;BME280;29273;49.962;9.768;2023-02-19T03:55:26;99942.41;;;12.93;55.79
38780;BME280;29273;49.962;9.768;2023-02-19T03:57:58;99939.53;;;12.95;55.99
38780;BME280;29273;49.962;9.768;2023-02-19T04:00:37;99945.47;;;12.97;56.01
38780;BME280;29273;49.962;9.768;2023-02-19T04:03:27;99954.69;;;12.94;55.75
38780;BME280;29273;49.962;9.768;2023-02-19T04:05:59;99942.00;;;12.96;55.93
38780;BME280;29273;49.962;9.768;2023-02-19T04:08:26;99946.94;;;12.93;56.33
38780;BME280;29273;49.962;9.768;2023-02-19T04:10:59;99942.03;;;12.90;56.22
38780;BME280;29273;49.962;9.768;2023-02-19T04:13:35;99952.63;;;12.96;55.81
38780;BME280;29273;49.962;9.768;2023-02-19T04:16:07;99951.81;;;12.96;55.87
38780;BME280;29273;49.962;9.768;2023-02-19T04:18:37;99958.97;;;12.95;55.86
38780;BME280;29273;49.962;9.768;2023-02-19T04:21:05;99961.22;;;12.92;56.27
38780;BME280;29273;49.962;9.768;2023-02-19T04:23:36;99968.19;;;12.93;56.44
38780;BME280;29273;49.962;9.768;2023-02-19T04:26:04;99960.84;;;12.88;56.45
38780;BME280;29273;49.962;9.768;2023-02-19T04:28:33;99961.06;;;12.87;56.85
38780;BME280;29273;49.962;9.768;2023-02-19T04:30:58;99965.56;;;12.86;56.72
38780;BME280;29273;49.962;9.768;2023-02-19T04:33:24;99963.94;;;12.85;57.08
38780;BME280;29273;49.962;9.768;2023-02-19T04:35:49;99970.28;;;12.84;57.09
38780;BME280;29273;49.962;9.768;2023-02-19T04:38:15;99966.78;;;12.84;57.24
38780;BME280;29273;49.962;9.768;2023-02-19T04:40:41;99973.97;;;12.83;57.25
38780;BME280;29273;49.962;9.768;2023-02-19T04:43:06;99981.34;;;12.81;57.53
38780;BME280;29273;49.962;9.768;2023-02-19T04:45:32;99977.03;;;12.80;57.75
38780;BME280;29273;49.962;9.768;2023-02-19T04:47:57;99973.78;;;12.78;57.96
38780;BME280;29273;49.962;9.768;2023-02-19T04:50:24;99967.88;;;12.76;57.59
38780;BME280;29273;49.962;9.768;2023-02-19T04:52:49;99974.81;;;12.77;57.59
38780;BME280;29273;49.962;9.768;2023-02-19T04:55:16;99970.31;;;12.77;57.65
38780;BME280;29273;49.962;9.768;2023-02-19T04:57:41;99984.84;;;12.75;57.80
38780;BME280;29273;49.962;9.768;2023-02-19T05:00:08;99969.94;;;12.74;57.49
38780;BME280;29273;49.962;9.768;2023-02-19T05:02:33;99974.63;;;12.72;57.69
38780;BME280;29273;49.962;9.768;2023-02-19T05:04:59;99984.25;;;12.73;57.78
38780;BME280;29273;49.962;9.768;2023-02-19T05:07:25;99982.00;;;12.70;57.21
38780;BME280;29273;49.962;9.768;2023-02-19T05:09:50;99981.19;;;12.69;57.43
38780;BME280;29273;49.962;9.768;2023-02-19T05:12:15;99987.31;;;12.70;57.43
38780;BME280;29273;49.962;9.768;2023-02-19T05:14:43;99998.97;;;12.69;57.41
38780;BME280;29273;49.962;9.768;2023-02-19T05:17:09;99995.69;;;12.67;58.01
38780;BME280;29273;49.962;9.768;2023-02-19T05:19:34;100000.00;;;12.68;57.81
38780;BME280;29273;49.962;9.768;2023-02-19T05:21:59;100000.41;;;12.65;57.62
38780;BME280;29273;49.962;9.768;2023-02-19T05:24:25;100005.53;;;12.66;57.59
38780;BME280;29273;49.962;9.768;2023-02-19T05:26:51;100001.00;;;12.67;57.61
38780;BME280;29273;49.962;9.768;2023-02-19T05:29:17;100008.19;;;12.66;57.58
38780;BME280;29273;49.962;9.768;2023-02-19T05:31:42;100001.81;;;12.67;57.96
38780;BME280;29273;49.962;9.768;2023-02-19T05:34:08;100008.78;;;12.68;57.83
38780;BME280;29273;49.962;9.768;2023-02-19T05:36:33;100005.31;;;12.68;57.67
38780;BME280;29273;49.962;9.768;2023-02-19T05:39:01;100008.56;;;12.70;57.79
38780;BME280;29273;49.962;9.768;2023-02-19T05:41:28;100002.84;;;12.73;58.00
38780;BME280;29273;49.962;9.768;2023-02-19T05:43:54;100009.16;;;12.72;57.84
38780;BME280;29273;49.962;9.768;2023-02-19T05:46:23;100003.66;;;12.73;57.70
38780;BME280;29273;49.962;9.768;2023-02-19T05:48:50;100017.13;;;12.72;57.91
38780;BME280;29273;49.962;9.768;2023-02-19T05:51:19;100014.47;;;12.72;57.92
38780;BME280;29273;49.962;9.768;2023-02-19T05:53:45;100014.69;;;12.70;57.85
38780;BME280;29273;49.962;9.768;2023-02-19T05:56:22;100016.13;;;12.73;57.26
38780;BME280;29273;49.962;9.768;2023-02-19T05:58:48;100010.84;;;12.66;58.11
38780;BME280;29273;49.962;9.768;2023-02-19T06:01:18;100020.00;;;12.70;57.71
38780;BME280;29273;49.962;9.768;2023-02-19T06:03:44;100024.13;;;12.66;58.18
38780;BME280;29273;49.962;9.768;2023-02-19T06:06:14;100029.63;;;12.71;57.70
38780;BME280;29273;49.962;9.768;2023-02-19T06:08:40;100011.25;;;12.63;57.77
38780;BME280;29273;49.962;9.768;2023-02-19T06:11:06;100014.72;;;12.64;57.76
38780;BME280;29273;49.962;9.768;2023-02-19T06:13:31;100020.88;;;12.64;57.49
38780;BME280;29273;49.962;9.768;2023-02-19T06:15:56;100025.75;;;12.61;57.50
38780;BME280;29273;49.962;9.768;2023-02-19T06:18:22;100022.09;;;12.62;57.23
38780;BME280;29273;49.962;9.768;2023-02-19T06:20:47;100022.91;;;12.62;57.14
38780;BME280;29273;49.962;9.768;2023-02-19T06:23:13;100028.22;;;12.62;57.25
38780;BME280;29273;49.962;9.768;2023-02-19T06:25:40;100021.06;;;12.63;57.34
38780;BME280;29273;49.962;9.768;2023-02-19T06:28:06;100028.22;;;12.62;57.41
38780;BME280;29273;49.962;9.768;2023-02-19T06:30:33;100030.88;;;12.62;57.09
38780;BME280;29273;49.962;9.768;2023-02-19T06:32:59;100025.75;;;12.61;56.96
38780;BME280;29273;49.962;9.768;2023-02-19T06:35:24;100038.03;;;12.62;57.08
38780;BME280;29273;49.962;9.768;2023-02-19T06:37:49;100039.88;;;12.61;56.92
38780;BME280;29273;49.962;9.768;2023-02-19T06:40:15;100033.97;;;12.59;57.10
38780;BME280;29273;49.962;9.768;2023-02-19T06:42:41;100036.00;;;12.57;56.95
38780;BME280;29273;49.962;9.768;2023-02-19T06:45:06;100045.81;;;12.56;56.94
38780;BME280;29273;49.962;9.768;2023-02-19T06:47:32;100053.38;;;12.59;56.46
38780;BME280;29273;49.962;9.768;2023-02-19T06:49:58;100049.06;;;12.58;56.74
38780;BME280;29273;49.962;9.768;2023-02-19T06:52:26;100053.56;;;12.58;56.71
38780;BME280;29273;49.962;9.768;2023-02-19T06:54:51;100070.13;;;12.60;56.72
38780;BME280;29273;49.962;9.768;2023-02-19T06:57:17;100055.44;;;12.57;56.90
38780;BME280;29273;49.962;9.768;2023-02-19T06:59:44;100061.75;;;12.56;56.62
38780;BME280;29273;49.962;9.768;2023-02-19T07:02:10;100062.94;;;12.61;56.48
38780;BME280;29273;49.962;9.768;2023-02-19T07:04:36;100077.28;;;12.59;56.74
38780;BME280;29273;49.962;9.768;2023-02-19T07:07:02;100072.78;;;12.60;56.57
38780;BME280;29273;49.962;9.768;2023-02-19T07:09:27;100071.16;;;12.59;56.82
38780;BME280;29273;49.962;9.768;2023-02-19T07:11:53;100064.00;;;12.59;56.69
38780;BME280;29273;49.962;9.768;2023-02-19T07:14:18;100077.50;;;12.58;56.44
38780;BME280;29273;49.962;9.768;2023-02-19T07:16:45;100077.28;;;12.59;56.43
38780;BME280;29273;49.962;9.768;2023-02-19T07:19:12;100088.13;;;12.58;56.22
38780;BME280;29273;49.962;9.768;2023-02-19T07:21:39;100086.25;;;12.58;56.13
38780;BME280;29273;49.962;9.768;2023-02-19T07:24:07;100090.56;;;12.59;55.86
38780;BME280;29273;49.962;9.768;2023-02-19T07:26:32;100097.72;;;12.59;55.91
38780;BME280;29273;49.962;9.768;2023-02-19T07:28:58;100104.66;;;12.60;55.71
38780;BME280;29273;49.962;9.768;2023-02-19T07:31:23;100100.38;;;12.59;55.63
38780;BME280;29273;49.962;9.768;2023-02-19T07:33:49;100107.09;;;12.62;55.75
38780;BME280;29273;49.962;9.768;2023-02-19T07:36:16;100114.66;;;12.65;55.60
38780;BME280;29273;49.962;9.768;2023-02-19T07:38:42;100111.41;;;12.63;55.55
38780;BME280;29273;49.962;9.768;2023-02-19T07:41:08;100115.47;;;12.65;55.73
38780;BME280;29273;49.962;9.768;2023-02-19T07:43:36;100118.53;;;12.69;55.52
38780;BME280;29273;49.962;9.768;2023-02-19T07:46:07;100126.09;;;12.72;55.47
38780;BME280;29273;49.962;9.768;2023-02-19T07:48:36;100128.56;;;12.67;55.67
38780;BME280;29273;49.962;9.768;2023-02-19T07:51:03;100122.84;;;12.70;55.48
38780;BME280;29273;49.962;9.768;2023-02-19T07:53:29;100128.56;;;12.67;55.92
38780;BME280;29273;49.962;9.768;2023-02-19T07:56:03;100127.13;;;12.77;55.80
38780;BME280;29273;49.962;9.768;2023-02-19T07:58:29;100137.56;;;12.72;55.82
38780;BME280;29273;49.962;9.768;2023-02-19T08:00:55;100133.44;;;12.76;56.10
38780;BME280;29273;49.962;9.768;2023-02-19T08:03:21;100132.03;;;12.74;55.91
38780;BME280;29273;49.962;9.768;2023-02-19T08:05:47;100127.13;;;12.77;56.17
38780;BME280;29273;49.962;9.768;2023-02-19T08:08:15;100133.44;;;12.76;56.03
38780;BME280;29273;49.962;9.768;2023-02-19T08:10:41;100135.09;;;12.77;55.67
38780;BME280;29273;49.962;9.768;2023-02-19T08:13:27;100135.09;;;12.77;55.92
38780;BME280;29273;49.962;9.768;2023-02-19T08:18:26;100147.75;;;12.75;55.74
38780;BME280;29273;49.962;9.768;2023-02-19T08:20:54;100144.88;;;12.77;55.87
38780;BME280;29273;49.962;9.768;2023-02-19T08:23:19;100146.13;;;12.74;55.91
38780;BME280;29273;49.962;9.768;2023-02-19T08:25:45;100163.69;;;12.69;55.84
38780;BME280;29273;49.962;9.768;2023-02-19T08:28:11;100147.34;;;12.72;55.99
38780;BME280;29273;49.962;9.768;2023-02-19T08:30:38;100166.59;;;12.74;56.01
38780;BME280;29273;49.962;9.768;2023-02-19T08:33:05;100175.97;;;12.76;56.35
38780;BME280;29273;49.962;9.768;2023-02-19T08:35:31;100170.66;;;12.76;56.03
38780;BME280;29273;49.962;9.768;2023-02-19T08:37:57;100173.09;;;12.78;56.28
38780;BME280;29273;49.962;9.768;2023-02-19T08:40:24;100172.91;;;12.80;56.39
38780;BME280;29273;49.962;9.768;2023-02-19T08:42:50;100188.44;;;12.83;56.59
38780;BME280;29273;49.962;9.768;2023-02-19T08:45:17;100186.59;;;12.83;56.21
38780;BME280;29273;49.962;9.768;2023-02-19T08:47:43;100211.31;;;12.84;56.59
38780;BME280;29273;49.962;9.768;2023-02-19T08:50:09;100219.09;;;12.85;56.22
38780;BME280;29273;49.962;9.768;2023-02-19T08:52:35;100233.41;;;12.84;56.48
38780;BME280;29273;49.962;9.768;2023-02-19T08:55:01;100231.38;;;12.86;56.42
38780;BME280;29273;49.962;9.768;2023-02-19T08:57:27;100236.69;;;12.86;56.57
38780;BME280;29273;49.962;9.768;2023-02-19T08:59:54;100235.22;;;12.90;56.40
38780;BME280;29273;49.962;9.768;2023-02-19T09:02:22;100233.22;;;12.92;56.62
38780;BME280;29273;49.962;9.768;2023-02-19T09:04:47;100242.81;;;12.87;57.10
38780;BME280;29273;49.962;9.768;2023-02-19T09:07:13;100252.81;;;12.91;56.77
38780;BME280;29273;49.962;9.768;2023-02-19T09:09:39;100252.81;;;12.91;57.04
38780;BME280;29273;49.962;9.768;2023-02-19T09:12:06;100249.97;;;12.93;57.36
38780;BME280;29273;49.962;9.768;2023-02-19T09:14:32;100263.47;;;12.91;57.84
38780;BME280;29273;49.962;9.768;2023-02-19T09:16:59;100260.59;;;12.93;57.65
38780;BME280;29273;49.962;9.768;2023-02-19T09:19:25;100264.91;;;12.94;58.05
38780;BME280;29273;49.962;9.768;2023-02-19T09:21:50;100267.56;;;12.94;58.61
38780;BME280;29273;49.962;9.768;2023-02-19T09:24:16;100261.59;;;12.92;58.48
38780;BME280;29273;49.962;9.768;2023-02-19T09:26:41;100275.75;;;12.92;58.45
38780;BME280;29273;49.962;9.768;2023-02-19T09:29:07;100274.09;;;12.91;58.49
38780;BME280;29273;49.962;9.768;2023-02-19T09:31:32;100285.53;;;12.92;58.41
38780;BME280;29273;49.962;9.768;2023-02-19T09:33:59;100272.88;;;12.94;58.19
38780;BME280;29273;49.962;9.768;2023-02-19T09:36:25;100273.91;;;12.93;58.39
38780;BME280;29273;49.962;9.768;2023-02-19T09:38:50;100271.22;;;12.93;58.23
38780;BME280;29273;49.962;9.768;2023-02-19T09:41:23;100278.41;;;12.99;57.88
38780;BME280;29273;49.962;9.768;2023-02-19T09:43:50;100279.63;;;12.96;58.51
38780;BME280;29273;49.962;9.768;2023-02-19T09:46:23;100294.53;;;13.04;57.94
38780;BME280;29273;49.962;9.768;2023-02-19T09:49:01;100297.41;;;13.03;58.18
38780;BME280;29273;49.962;9.768;2023-02-19T09:51:28;100297.22;;;13.04;57.52
38780;BME280;29273;49.962;9.768;2023-02-19T09:53:56;100305.38;;;13.09;57.06
38780;BME280;29273;49.962;9.768;2023-02-19T09:56:24;100309.25;;;13.13;57.23
38780;BME280;29273;49.962;9.768;2023-02-19T09:58:55;100297.59;;;13.14;56.62
38780;BME280;29273;49.962;9.768;2023-02-19T10:01:25;100301.66;;;13.17;57.24
38780;BME280;29273;49.962;9.768;2023-02-19T10:03:52;100297.81;;;13.13;56.64
38780;BME280;29273;49.962;9.768;2023-02-19T10:06:20;100295.94;;;13.20;56.75
38780;BME280;29273;49.962;9.768;2023-02-19T10:08:49;100301.91;;;13.22;56.86
38780;BME280;29273;49.962;9.768;2023-02-19T10:11:17;100299.63;;;13.26;56.21
38780;BME280;29273;49.962;9.768;2023-02-19T10:13:46;100300.47;;;13.33;56.57
38780;BME280;29273;49.962;9.768;2023-02-19T10:16:19;100304.97;;;13.39;56.66
38780;BME280;29273;49.962;9.768;2023-02-19T10:18:46;100303.13;;;13.40;56.45
38780;BME280;29273;49.962;9.768;2023-02-19T10:21:18;100300.84;;;13.50;55.71
38780;BME280;29273;49.962;9.768;2023-02-19T10:23:45;100293.66;;;13.50;55.50
38780;BME280;29273;49.962;9.768;2023-02-19T10:26:13;100296.94;;;13.53;55.34
38780;BME280;29273;49.962;9.768;2023-02-19T10:28:39;100304.72;;;13.54;55.28
38780;BME280;29273;49.962;9.768;2023-02-19T10:31:14;100320.47;;;13.62;55.46
38780;BME280;29273;49.962;9.768;2023-02-19T10:33:55;100320.88;;;13.66;55.30
38780;BME280;29273;49.962;9.768;2023-02-19T10:36:26;100320.44;;;13.69;55.79
38780;BME280;29273;49.962;9.768;2023-02-19T10:38:53;100340.50;;;13.65;55.53
38780;BME280;29273;49.962;9.768;2023-02-19T10:41:21;100322.25;;;13.75;55.33
38780;BME280;29273;49.962;9.768;2023-02-19T10:44:05;100323.88;;;13.83;55.91
38780;BME280;29273;49.962;9.768;2023-02-19T10:46:43;100317.09;;;13.87;55.08
38780;BME280;29273;49.962;9.768;2023-02-19T10:49:31;100335.28;;;13.97;55.67
38780;BME280;29273;49.962;9.768;2023-02-19T10:54:45;100334.63;;;14.08;55.36
38780;BME280;29273;49.962;9.768;2023-02-19T11:00:01;100333.38;;;14.17;54.11
38780;BME280;29273;49.962;9.768;2023-02-19T11:02:29;100338.88;;;14.22;55.38
38780;BME280;29273;49.962;9.768;2023-02-19T11:07:53;100353.56;;;14.32;54.20
38780;BME280;29273;49.962;9.768;2023-02-19T11:12:53;100369.94;;;14.35;54.04
38780;BME280;29273;49.962;9.768;2023-02-19T11:15:27;100366.66;;;14.40;54.06
38780;BME280;29273;49.962;9.768;2023-02-19T11:20:46;100376.69;;;14.44;54.01
38780;BME280;29273;49.962;9.768;2023-02-19T11:23:16;100375.25;;;14.42;53.76
38780;BME280;29273;49.962;9.768;2023-02-19T11:25:47;100376.28;;;14.41;53.34
38780;BME280;29273;49.962;9.768;2023-02-19T11:31:30;100395.34;;;14.38;53.75
38780;BME280;29273;49.962;9.768;2023-02-19T11:36:39;100400.50;;;14.33;53.16
38780;BME280;29273;49.962;9.768;2023-02-19T11:53:28;100399.06;;;14.30;51.97
38780;BME280;29273;49.962;9.768;2023-02-19T11:59:04;100408.53;;;14.26;52.77
38780;BME280;29273;49.962;9.768;2023-02-19T12:01:57;100395.81;;;14.28;52.60
38780;BME280;29273;49.962;9.768;2023-02-19T12:04:58;100398.66;;;14.33;52.77
38780;BME280;29273;49.962;9.768;2023-02-19T12:11:07;100397.63;;;14.34;52.47
38780;BME280;29273;49.962;9.768;2023-02-19T12:22:07;100386.41;;;14.25;52.11
38780;BME280;29273;49.962;9.768;2023-02-19T12:31:07;100385.34;;;14.27;52.20
38780;BME280;29273;49.962;9.768;2023-02-19T12:33:58;100397.47;;;14.22;51.69
38780;BME280;29273;49.962;9.768;2023-02-19T12:42:20;100409.53;;;14.25;52.03
38780;BME280;29273;49.962;9.768;2023-02-19T12:44:56;100397.06;;;14.25;52.20
38780;BME280;29273;49.962;9.768;2023-02-19T12:47:31;100396.63;;;14.29;52.38
38780;BME280;29273;49.962;9.768;2023-02-19T12:50:04;100435.34;;;14.31;51.95
38780;BME280;29273;49.962;9.768;2023-02-19T12:52:36;100432.69;;;14.31;51.31
38780;BME280;29273;49.962;9.768;2023-02-19T12:57:41;100400.50;;;14.33;50.56
38780;BME280;29273;49.962;9.768;2023-02-19T13:00:27;100392.88;;;14.43;51.60
38780;BME280;29273;49.962;9.768;2023-02-19T13:03:17;100392.06;;;14.42;51.78
38780;BME280;29273;49.962;9.768;2023-02-19T13:05:51;100397.56;;;14.48;51.06
38780;BME280;29273;49.962;9.768;2023-02-19T13:08:26;100390.97;;;14.50;50.99
38780;BME280;29273;49.962;9.768;2023-02-19T13:11:03;100390.16;;;14.50;50.90
38780;BME280;29273;49.962;9.768;2023-02-19T13:13:53;100377.88;;;14.49;50.59
38780;BME280;29273;49.962;9.768;2023-02-19T13:16:22;100390.00;;;14.44;51.01
38780;BME280;29273;49.962;9.768;2023-02-19T13:18:54;100399.63;;;14.46;50.39
38780;BME280;29273;49.962;9.768;2023-02-19T13:21:23;100374.84;;;14.38;48.81
38780;BME280;29273;49.962;9.768;2023-02-19T13:24:31;100391.25;;;14.35;50.20
38780;BME280;29273;49.962;9.768;2023-02-19T13:27:29;100387.78;;;14.35;50.44
38780;BME280;29273;49.962;9.768;2023-02-19T13:38:10;100415.69;;;14.32;50.42
38780;BME280;29273;49.962;9.768;2023-02-19T13:40:41;100411.75;;;14.35;50.58
38780;BME280;29273;49.962;9.768;2023-02-19T13:43:23;100412.78;;;14.34;50.75
38780;BME280;29273;49.962;9.768;2023-02-19T13:45:55;100415.69;;;14.32;50.68
38780;BME280;29273;49.962;9.768;2023-02-19T13:50:49;100410.16;;;14.27;50.58
38780;BME280;29273;49.962;9.768;2023-02-19T14:27:52;100435.16;;;14.26;51.47
38780;BME280;29273;49.962;9.768;2023-02-19T14:30:20;100452.78;;;14.27;51.53
38780;BME280;29273;49.962;9.768;2023-02-19T14:32:47;100464.47;;;14.26;51.49
38780;BME280;29273;49.962;9.768;2023-02-19T14:35:22;100476.34;;;14.30;51.85
38780;BME280;29273;49.962;9.768;2023-02-19T14:37:50;100471.66;;;14.25;52.67
38780;BME280;29273;49.962;9.768;2023-02-19T14:40:33;100475.72;;;14.28;52.59
38780;BME280;29273;49.962;9.768;2023-02-19T14:43:01;100469.19;;;14.24;53.49
38780;BME280;29273;49.962;9.768;2023-02-19T14:45:29;100477.00;;;14.25;53.73
38780;BME280;29273;49.962;9.768;2023-02-19T14:48:00;100478.44;;;14.08;53.68
38780;BME280;29273;49.962;9.768;2023-02-19T14:50:31;100476.16;;;14.25;53.06
38780;BME280;29273;49.962;9.768;2023-02-19T14:52:59;100482.53;;;14.24;53.20
38780;BME280;29273;49.962;9.768;2023-02-19T14:55:33;100470.63;;;14.27;53.53
38780;BME280;29273;49.962;9.768;2023-02-19T14:58:11;100467.94;;;14.27;52.83
38780;BME280;29273;49.962;9.768;2023-02-19T15:00:42;100470.63;;;14.27;52.81
38780;BME280;29273;49.962;9.768;2023-02-19T15:03:27;100477.19;;;14.24;53.11
38780;BME280;29273;49.962;9.768;2023-02-19T15:06:10;100467.94;;;14.27;53.19
38780;BME280;29273;49.962;9.768;2023-02-19T15:08:45;100465.28;;;14.27;53.33
38780;BME280;29273;49.962;9.768;2023-02-19T15:11:21;100459.75;;;14.28;52.76
38780;BME280;29273;49.962;9.768;2023-02-19T15:13:54;100466.53;;;14.31;52.73
38780;BME280;29273;49.962;9.768;2023-02-19T15:16:22;100471.00;;;14.30;52.32
38780;BME280;29273;49.962;9.768;2023-02-19T15:18:49;100467.94;;;14.27;52.56
38780;BME280;29273;49.962;9.768;2023-02-19T15:21:23;100471.00;;;14.30;52.15